Dades meteomassalio
Diari Summary for Agost 16, 2017 Units:  English    Metric   Both
« Previous Day
Next Day »
Diari Semanal Mensual Anual Personalitzat
  Maxima: Minima: Mijana:
Temperatura: TemperatureC °F 18.8 °F 25.9 °F
Rosada: DewpointC °F 13.2 °F 16.9 °F
Humitat: Humidity % 30 % 61 %
Velocitat del vent: WindSpeedKMH mph 0.0 mph 2.3 mph
Racha vent: WindSpeedGustKMH mph - -
Vent:- - SE
Pressio: PressurehPa in 1015.5 in -
Pluja: 0.0 in    
Historical Graphs
 
 
Tabular Data for Agost 16, 2017
Time Temperature Dew Point Pressure Wind Wind Speed Wind Gust Humidity Rainfall Rate (Hourly) solar Conditions
TemperatureC °F DewpointC °F PressurehPa in Calm     Humidity % HourlyPrecipMM in SolarRadiationWatts/m^2 W/m2 Conditions
00:03 22.3 °F 19.1 °F 1017.2 in Calm     82 % 0.0 in 0.0 W/m2 RA
00:08 22.2 °F 19.2 °F 1017.2 in Calm     83 % 0.0 in 0.0 W/m2 CLR
00:13 22.1 °F 19.1 °F 1017.2 in Calm     83 % 0.0 in 0.0 W/m2 CLR
00:18 22.0 °F 19.0 °F 1017.2 in Calm     83 % 0.0 in 0.0 W/m2 CLR
00:23 21.8 °F 18.6 °F 1017.2 in Calm     82 % 0.0 in 0.0 W/m2 CLR
00:28 21.6 °F 18.6 °F 1017.2 in Calm     83 % 0.0 in 0.0 W/m2 CLR
00:33 21.5 °F 18.5 °F 1016.8 in Calm     83 % 0.0 in 0.0 W/m2 CLR
00:38 21.4 °F 18.6 °F 1016.8 in Calm     84 % 0.0 in 0.0 W/m2 CLR
00:43 21.3 °F 18.4 °F 1017.2 in Calm     84 % 0.0 in 0.0 W/m2 CLR
00:48 21.2 °F 18.6 °F 1017.2 in Calm     85 % 0.0 in 0.0 W/m2 CLR
00:53 21.1 °F 18.2 °F 1017.2 in Calm     84 % 0.0 in 0.0 W/m2 CLR
00:58 21.0 °F 18.4 °F 1017.2 in Calm     85 % 0.0 in 0.0 W/m2 CLR
01:03 20.8 °F 18.2 °F 1017.2 in Calm     85 % 0.0 in 0.0 W/m2 CLR
01:08 20.7 °F 18.1 °F 1017.5 in Calm     85 % 0.0 in 0.0 W/m2 CLR
01:13 20.6 °F 18.0 °F 1017.2 in Calm     85 % 0.0 in 0.0 W/m2 CLR
01:18 20.6 °F 17.9 °F 1017.2 in Calm     85 % 0.0 in 0.0 W/m2 CLR
01:23 20.4 °F 18.0 °F 1017.2 in Calm     86 % 0.0 in 0.0 W/m2 CLR
01:28 20.4 °F 17.9 °F 1017.5 in Calm     86 % 0.0 in 0.0 W/m2 CLR
01:33 20.3 °F 17.9 °F 1017.2 in Calm     86 % 0.0 in 0.0 W/m2 CLR
01:38 20.3 °F 17.9 °F 1017.2 in Calm     86 % 0.0 in 0.0 W/m2 CLR
01:43 20.3 °F 17.8 °F 1017.2 in Calm     86 % 0.0 in 0.0 W/m2 CLR
01:48 20.2 °F 17.8 °F 1017.2 in Calm     86 % 0.0 in 0.0 W/m2 CLR
01:53 20.1 °F 17.7 °F 1017.2 in Calm     86 % 0.0 in 0.0 W/m2 CLR
01:58 20.1 °F 17.9 °F 1017.2 in Calm     87 % 0.0 in 0.0 W/m2 CLR
02:03 20.0 °F 17.6 °F 1017.2 in Calm     86 % 0.0 in 0.0 W/m2 CLR
02:08 19.9 °F 17.7 °F 1017.2 in Calm     87 % 0.0 in 0.0 W/m2 CLR
02:13 19.9 °F 17.7 °F 1017.2 in Calm     87 % 0.0 in 0.0 W/m2 CLR
02:18 19.8 °F 17.6 °F 1017.2 in Calm     87 % 0.0 in 0.0 W/m2 CLR
02:19 19.8 °F 17.6 °F 1017.2 in Calm     87 % 0.0 in 0.0 W/m2 CLR
02:24 19.8 °F 17.6 °F 1017.2 in Calm     87 % 0.0 in 0.0 W/m2 CLR
02:29 19.8 °F 17.6 °F 1017.2 in Calm     87 % 0.0 in 0.0 W/m2 CLR
02:34 19.7 °F 17.5 °F 1017.2 in Calm     87 % 0.0 in 0.0 W/m2 CLR
02:39 19.6 °F 17.4 °F 1017.2 in Calm     87 % 0.0 in 0.0 W/m2 CLR
02:44 19.5 °F 17.3 °F 1017.2 in Calm     87 % 0.0 in 0.0 W/m2 CLR
02:49 19.4 °F 17.2 °F 1017.2 in Calm     87 % 0.0 in 0.0 W/m2 CLR
02:54 19.3 °F 17.1 °F 1017.2 in Calm     87 % 0.0 in 0.0 W/m2 CLR
02:59 19.3 °F 17.1 °F 1017.2 in Calm     87 % 0.0 in 0.0 W/m2 CLR
03:04 19.2 °F 17.2 °F 1017.2 in Calm     88 % 0.0 in 0.0 W/m2 CLR
03:09 19.2 °F 17.1 °F 1017.2 in Calm     88 % 0.0 in 0.0 W/m2 CLR
03:14 19.2 °F 17.1 °F 1017.2 in Calm     88 % 0.0 in 0.0 W/m2 CLR
03:19 19.2 °F 17.1 °F 1017.2 in Calm     88 % 0.0 in 0.0 W/m2 CLR
03:24 19.1 °F 17.1 °F 1017.2 in Calm     88 % 0.0 in 0.0 W/m2 CLR
03:29 19.1 °F 17.1 °F 1017.2 in Calm     88 % 0.0 in 0.0 W/m2 CLR
03:34 19.1 °F 17.1 °F 1017.2 in Calm     88 % 0.0 in 0.0 W/m2 CLR
03:39 19.1 °F 17.1 °F 1017.2 in Calm     88 % 0.0 in 0.0 W/m2 CLR
03:44 19.0 °F 16.9 °F 1017.5 in Calm     88 % 0.0 in 0.0 W/m2 CLR
03:49 18.9 °F 16.8 °F 1017.5 in Calm     88 % 0.0 in 0.0 W/m2 CLR
03:54 18.9 °F 17.1 °F 1017.5 in Calm     89 % 0.0 in 0.0 W/m2 CLR
03:59 18.9 °F 16.9 °F 1017.5 in Calm     88 % 0.0 in 0.0 W/m2 CLR
04:04 18.9 °F 16.8 °F 1017.5 in Calm     88 % 0.0 in 0.0 W/m2 CLR
04:09 18.8 °F 16.8 °F 1017.5 in Calm     88 % 0.0 in 0.0 W/m2 CLR
04:14 18.9 °F 17.1 °F 1017.5 in Calm     89 % 0.0 in 0.0 W/m2 CLR
04:19 18.9 °F 17.1 °F 1017.5 in Calm     89 % 0.0 in 0.0 W/m2 CLR
04:24 19.0 °F 17.2 °F 1017.5 in Calm     89 % 0.0 in 0.0 W/m2 CLR
04:29 19.1 °F 17.2 °F 1017.5 in Calm     89 % 0.0 in 0.0 W/m2 CLR
04:34 19.1 °F 17.3 °F 1017.5 in Calm     89 % 0.0 in 0.0 W/m2 CLR
04:39 19.1 °F 17.3 °F 1017.5 in Calm     89 % 0.0 in 0.0 W/m2 CLR
04:44 19.1 °F 17.3 °F 1017.5 in Calm     89 % 0.0 in 0.0 W/m2 CLR
04:49 19.1 °F 17.3 °F 1017.5 in Calm     89 % 0.0 in 0.0 W/m2 CLR
04:54 19.2 °F 17.3 °F 1017.5 in Calm     89 % 0.0 in 0.0 W/m2 CLR
04:59 19.2 °F 17.3 °F 1017.8 in Calm     89 % 0.0 in 0.0 W/m2 CLR
05:04 19.2 °F 17.3 °F 1017.8 in Calm     89 % 0.0 in 0.0 W/m2 CLR
05:09 19.3 °F 17.4 °F 1017.8 in Calm     89 % 0.0 in 0.0 W/m2 CLR
05:14 19.4 °F 17.6 °F 1017.8 in Calm     89 % 0.0 in 0.0 W/m2 CLR
05:19 19.5 °F 17.6 °F 1017.8 in Calm     89 % 0.0 in 0.0 W/m2 CLR
05:21 19.5 °F 17.6 °F 1017.8 in Calm     89 % 0.0 in 0.0 W/m2 CLR
05:22 19.5 °F 17.6 °F 1017.8 in Calm     89 % 0.0 in 0.0 W/m2 CLR
05:26 19.6 °F 17.6 °F 1017.8 in Calm     88 % 0.0 in 0.0 W/m2 CLR
05:31 19.7 °F 17.6 °F 1017.8 in Calm     88 % 0.0 in 0.0 W/m2 CLR
05:36 19.7 °F 17.7 °F 1017.8 in West 3.2 mph 3.2 mph 88 % 0.0 in 0.0 W/m2 CLR
05:41 19.8 °F 17.8 °F 1017.8 in Calm     88 % 0.0 in 0.0 W/m2 CLR
05:46 19.9 °F 17.8 °F 1017.8 in Calm     88 % 0.0 in 0.0 W/m2 CLR
05:51 19.8 °F 17.8 °F 1017.8 in Calm     88 % 0.0 in 0.0 W/m2 CLR
05:56 19.8 °F 17.7 °F 1017.8 in Calm     88 % 0.0 in 0.0 W/m2 CLR
06:01 19.8 °F 17.7 °F 1017.8 in Calm     88 % 0.0 in 0.0 W/m2 CLR
06:06 19.8 °F 17.8 °F 1017.8 in Calm     88 % 0.0 in 0.0 W/m2 CLR
06:11 20.0 °F 18.1 °F 1017.8 in Calm     89 % 0.0 in 0.0 W/m2 CLR
06:16 20.2 °F 18.3 °F 1018.2 in Calm     89 % 0.0 in 0.0 W/m2 CLR
06:21 20.4 °F 18.5 °F 1018.2 in SW 3.7 mph   89 % 0.0 in 0.0 W/m2 CLR
06:27 20.6 °F 18.7 °F 1018.2 in Calm     89 % 0.0 in 0.0 W/m2 CLR
06:32 20.8 °F 18.7 °F 1018.2 in WSW 6.4 mph 6.4 mph 88 % 0.0 in 0.0 W/m2 CLR
06:37 20.8 °F 18.8 °F 1018.2 in Calm     88 % 0.0 in 0.0 W/m2 CLR
06:42 20.9 °F 18.8 °F 1018.2 in SW 1.9 mph 1.9 mph 88 % 0.0 in 0.0 W/m2 CLR
06:47 20.9 °F 18.7 °F 1018.2 in WSW 3.2 mph 3.2 mph 87 % 0.0 in 0.0 W/m2 CLR
06:52 20.9 °F 18.7 °F 1018.2 in Calm     87 % 0.0 in 0.0 W/m2 CLR
06:57 20.9 °F 18.7 °F 1018.2 in Calm     87 % 0.0 in 0.0 W/m2 CLR
07:02 20.9 °F 18.5 °F 1018.2 in Calm     86 % 0.0 in 0.0 W/m2 OVC
07:07 20.9 °F 18.5 °F 1018.2 in Calm     86 % 0.0 in 0.0 W/m2 OVC
07:12 20.9 °F 18.3 °F 1018.2 in Calm     85 % 0.0 in 0.0 W/m2 OVC
07:17 20.9 °F 18.1 °F 1018.5 in Calm     84 % 0.0 in 5.0 W/m2 OVC
07:22 21.0 °F 18.0 °F 1018.5 in Calm     83 % 0.0 in 11.0 W/m2 BKN
07:27 21.0 °F 18.0 °F 1018.5 in Calm     83 % 0.0 in 19.0 W/m2 BKN
07:32 21.0 °F 17.8 °F 1018.5 in Calm     82 % 0.0 in 23.0 W/m2 BKN
07:37 21.1 °F 17.7 °F 1018.5 in Calm     81 % 0.0 in 26.0 W/m2 BKN
07:42 21.1 °F 17.4 °F 1018.5 in Calm     80 % 0.0 in 32.0 W/m2 BKN
07:47 21.1 °F 17.5 °F 1018.5 in Calm     80 % 0.0 in 35.0 W/m2 BKN
07:52 21.1 °F 17.3 °F 1018.5 in Calm     79 % 0.0 in 37.0 W/m2 BKN
07:57 21.1 °F 17.3 °F 1018.5 in Calm     79 % 0.0 in 46.0 W/m2 SCT
08:02 21.1 °F 17.3 °F 1018.8 in Calm     79 % 0.0 in 54.0 W/m2 SCT
08:07 21.1 °F 17.3 °F 1018.8 in Calm     79 % 0.0 in 54.0 W/m2 SCT
08:12 21.2 °F 17.4 °F 1018.8 in Calm     79 % 0.0 in 56.0 W/m2 SCT
08:17 21.1 °F 17.3 °F 1018.8 in Calm     79 % 0.0 in 67.0 W/m2 SCT
08:22 21.2 °F 17.2 °F 1018.8 in Calm     78 % 0.0 in 76.0 W/m2 SCT
08:27 21.2 °F 17.0 °F 1018.8 in Calm     77 % 0.0 in 86.0 W/m2 FEW
08:32 21.2 °F 17.0 °F 1018.8 in Calm     77 % 0.0 in 120.0 W/m2 CLR
08:37 21.3 °F 16.9 °F 1018.8 in Calm     76 % 0.0 in 204.0 W/m2 CLR
08:42 21.4 °F 17.1 °F 1019.2 in WNW 1.6 mph 1.6 mph 76 % 0.0 in 181.0 W/m2 CLR
08:47 21.6 °F 16.9 °F 1019.2 in NW 6.4 mph 6.4 mph 75 % 0.0 in 174.0 W/m2 CLR
08:52 21.7 °F 17.1 °F 1019.2 in NW 5.6 mph 5.6 mph 75 % 0.0 in 260.0 W/m2 CLR
08:57 21.8 °F 17.0 °F 1019.2 in WNW 5.6 mph 5.6 mph 74 % 0.0 in 174.0 W/m2 CLR
09:02 21.9 °F 17.1 °F 1019.2 in Calm     74 % 0.0 in 123.0 W/m2 CLR
09:07 21.9 °F 16.8 °F 1019.2 in Calm     73 % 0.0 in 111.0 W/m2 CLR
09:12 21.9 °F 16.8 °F 1019.2 in Calm     73 % 0.0 in 114.0 W/m2 CLR
09:17 21.9 °F 16.8 °F 1019.2 in Calm     73 % 0.0 in 141.0 W/m2 CLR
09:22 22.0 °F 16.9 °F 1019.2 in Calm     73 % 0.0 in 160.0 W/m2 CLR
09:27 22.1 °F 17.1 °F 1019.2 in Calm     73 % 0.0 in 197.0 W/m2 CLR
09:28 22.1 °F 17.1 °F 1019.2 in Calm     73 % 0.0 in 244.0 W/m2 CLR
09:33 22.3 °F 17.0 °F 1019.2 in Calm     72 % 0.0 in 315.0 W/m2 CLR
09:38 22.6 °F 17.3 °F 1018.8 in Calm     72 % 0.0 in 367.0 W/m2 CLR
09:43 22.8 °F 17.1 °F 1018.8 in Calm     70 % 0.0 in 229.0 W/m2 CLR
09:48 23.1 °F 17.1 °F 1019.2 in Calm     69 % 0.0 in 290.0 W/m2 CLR
09:53 23.2 °F 17.2 °F 1019.2 in Calm     69 % 0.0 in 348.0 W/m2 CLR
09:58 23.4 °F 17.4 °F 1019.2 in Calm     69 % 0.0 in 397.0 W/m2 CLR
10:03 23.7 °F 17.2 °F 1019.2 in Calm     67 % 0.0 in 448.0 W/m2 CLR
10:08 24.0 °F 17.5 °F 1018.8 in Calm     67 % 0.0 in 381.0 W/m2 CLR
10:13 24.1 °F 17.6 °F 1018.8 in Calm     67 % 0.0 in 315.0 W/m2 CLR
10:18 24.2 °F 17.4 °F 1018.8 in Calm     66 % 0.0 in 436.0 W/m2 CLR
10:23 24.3 °F 17.6 °F 1018.8 in Calm     66 % 0.0 in 476.0 W/m2 CLR
10:28 24.5 °F 17.5 °F 1018.8 in North 5.6 mph 5.6 mph 65 % 0.0 in 408.0 W/m2 CLR
10:33 24.6 °F 17.3 °F 1018.8 in Calm     64 % 0.0 in 487.0 W/m2 CLR
10:38 24.7 °F 17.4 °F 1018.8 in Calm     64 % 0.0 in 459.0 W/m2 CLR
10:43 24.9 °F 17.7 °F 1018.8 in WSW 14.8 mph 14.8 mph 64 % 0.0 in 571.0 W/m2 CLR
10:48 25.2 °F 17.9 °F 1018.8 in Calm     64 % 0.0 in 559.0 W/m2 CLR
10:53 25.3 °F 17.8 °F 1018.8 in Calm     63 % 0.0 in 457.0 W/m2 CLR
10:58 25.4 °F 17.6 °F 1018.8 in Calm     62 % 0.0 in 480.0 W/m2 CLR
11:03 25.7 °F 17.9 °F 1018.8 in NW 9.3 mph 9.3 mph 62 % 0.0 in 598.0 W/m2 CLR
11:08 25.7 °F 17.9 °F 1018.8 in NNW 5.6 mph 5.6 mph 62 % 0.0 in 531.0 W/m2 CLR
11:13 25.7 °F 17.9 °F 1018.8 in Calm     62 % 0.0 in 496.0 W/m2 CLR
11:18 26.0 °F 18.4 °F 1018.8 in Calm   0.8 mph 63 % 0.0 in 642.0 W/m2 CLR
11:23 26.3 °F 18.2 °F 1018.8 in North 5.6 mph 5.6 mph 61 % 0.0 in 624.0 W/m2 CLR
11:28 26.5 °F 18.1 °F 1018.8 in ENE 5.6 mph 5.6 mph 60 % 0.0 in 675.0 W/m2 CLR
11:33 26.6 °F 17.9 °F 1018.8 in East 7.4 mph 7.4 mph 59 % 0.0 in 527.0 W/m2 CLR
11:38 26.4 °F 18.0 °F 1018.8 in ENE 5.6 mph   60 % 0.0 in 475.0 W/m2 CLR
11:43 26.5 °F 18.1 °F 1018.8 in NE 5.6 mph 5.6 mph 60 % 0.0 in 415.0 W/m2 CLR
11:48 26.7 °F 18.3 °F 1018.8 in Calm     60 % 0.0 in 707.0 W/m2 CLR
11:53 26.9 °F 18.3 °F 1018.8 in NE 6.4 mph 6.4 mph 59 % 0.0 in 726.0 W/m2 CLR
11:58 27.1 °F 18.1 °F 1018.8 in ENE 1.9 mph 1.9 mph 58 % 0.0 in 661.0 W/m2 CLR
12:03 27.2 °F 18.2 °F 1018.8 in ENE 3.7 mph   58 % 0.0 in 557.0 W/m2 CLR
12:08 27.4 °F 18.1 °F 1018.5 in North 5.6 mph 5.6 mph 57 % 0.0 in 645.0 W/m2 CLR
12:13 27.4 °F 18.1 °F 1018.5 in East 5.6 mph 5.6 mph 57 % 0.0 in 726.0 W/m2 CLR
12:18 27.3 °F 18.1 °F 1018.5 in Calm     57 % 0.0 in 807.0 W/m2 CLR
12:23 27.7 °F 18.4 °F 1018.5 in ENE 7.4 mph 7.4 mph 57 % 0.0 in 652.0 W/m2 CLR
12:28 28.0 °F 18.4 °F 1018.5 in Calm     56 % 0.0 in 722.0 W/m2 CLR
12:33 28.2 °F 18.1 °F 1018.5 in ENE 5.6 mph   54 % 0.0 in 742.0 W/m2 CLR
12:38 28.1 °F 18.2 °F 1018.5 in Calm     55 % 0.0 in 809.0 W/m2 CLR
12:43 28.2 °F 18.1 °F 1018.5 in Calm     54 % 0.0 in 752.0 W/m2 CLR
12:48 28.2 °F 18.1 °F 1018.5 in Calm     54 % 0.0 in 700.0 W/m2 CLR
12:53 28.2 °F 18.1 °F 1018.5 in Calm     54 % 0.0 in 786.0 W/m2 CLR
12:58 28.4 °F 18.2 °F 1018.5 in Calm     54 % 0.0 in 807.0 W/m2 CLR
13:03 28.5 °F 18.3 °F 1018.5 in Calm   0.2 mph 54 % 0.0 in 796.0 W/m2 CLR
13:09 28.6 °F 18.1 °F 1018.2 in ENE 9.3 mph 9.3 mph 53 % 0.0 in 819.0 W/m2 CLR
13:14 28.4 °F 18.2 °F 1018.2 in East 3.2 mph 3.2 mph 54 % 0.0 in 788.0 W/m2 CLR
13:19 28.6 °F 18.4 °F 1018.2 in North 5.6 mph 5.6 mph 54 % 0.0 in 865.0 W/m2 CLR
13:24 28.9 °F 18.1 °F 1018.2 in NNE 18.5 mph 18.5 mph 52 % 0.0 in 795.0 W/m2 CLR
13:29 29.0 °F 18.2 °F 1018.2 in NNW 1.9 mph   52 % 0.0 in 861.0 W/m2 CLR
13:34 29.4 °F 18.2 °F 1018.2 in NNW 3.7 mph   51 % 0.0 in 842.0 W/m2 CLR
13:39 29.6 °F 18.4 °F 1018.2 in East 4.8 mph 4.8 mph 51 % 0.0 in 689.0 W/m2 CLR
13:44 29.3 °F 18.2 °F 1018.2 in ESE 11.1 mph 11.1 mph 51 % 0.0 in 742.0 W/m2 CLR
13:49 29.1 °F 17.9 °F 1017.8 in ENE 6.4 mph 6.4 mph 51 % 0.0 in 752.0 W/m2 CLR
13:54 29.1 °F 18.2 °F 1017.8 in East 11.1 mph 11.1 mph 52 % 0.0 in 770.0 W/m2 CLR
13:59 29.1 °F 18.2 °F 1017.8 in East 5.6 mph 5.6 mph 52 % 0.0 in 791.0 W/m2 CLR
14:04 29.2 °F 18.3 °F 1017.8 in ENE 9.3 mph 9.3 mph 52 % 0.0 in 881.0 W/m2 CLR
14:14 29.6 °F 18.3 °F 1017.5 in SE 3.7 mph 3.7 mph 51 % 0.0 in 868.0 W/m2 CLR
14:19 30.0 °F 18.4 °F 1017.5 in ENE 11.1 mph 11.1 mph 50 % 0.0 in 863.0 W/m2 CLR
14:24 30.2 °F 18.3 °F 1017.5 in Calm     49 % 0.0 in 858.0 W/m2 CLR
14:29 30.4 °F 18.5 °F 1017.5 in NE 9.3 mph 9.3 mph 49 % 0.0 in 856.0 W/m2 CLR
14:34 30.6 °F 18.3 °F 1017.5 in Calm     48 % 0.0 in 860.0 W/m2 CLR
14:39 30.7 °F 18.1 °F 1017.2 in ENE 3.7 mph 3.7 mph 47 % 0.0 in 851.0 W/m2 CLR
14:44 30.7 °F 18.1 °F 1017.2 in Calm     47 % 0.0 in 846.0 W/m2 CLR
14:49 30.7 °F 18.1 °F 1017.2 in SE 3.7 mph 3.7 mph 47 % 0.0 in 840.0 W/m2 CLR
14:54 30.8 °F 18.5 °F 1017.2 in Calm     48 % 0.0 in 831.0 W/m2 CLR
14:59 31.3 °F 18.3 °F 1017.2 in ENE 1.9 mph 1.9 mph 46 % 0.0 in 828.0 W/m2 CLR
15:04 31.7 °F 18.3 °F 1016.8 in NE 5.6 mph 5.6 mph 45 % 0.0 in 826.0 W/m2 CLR
15:09 31.7 °F 18.3 °F 1016.8 in ENE 5.6 mph 5.6 mph 45 % 0.0 in 819.0 W/m2 CLR
15:14 31.9 °F 18.1 °F 1016.8 in NE 12.9 mph 12.9 mph 44 % 0.0 in 816.0 W/m2 CLR
15:19 31.8 °F 18.1 °F 1016.8 in NE 5.6 mph 5.6 mph 44 % 0.0 in 809.0 W/m2 CLR
15:24 31.9 °F 17.8 °F 1016.8 in East 11.1 mph 11.1 mph 43 % 0.0 in 802.0 W/m2 CLR
15:29 31.8 °F 18.0 °F 1016.8 in SE 11.3 mph 11.3 mph 44 % 0.0 in 795.0 W/m2 CLR
15:34 31.7 °F 17.9 °F 1016.8 in ENE 7.4 mph 7.4 mph 44 % 0.0 in 789.0 W/m2 CLR
15:39 32.0 °F 17.8 °F 1016.8 in ENE 3.2 mph 3.2 mph 43 % 0.0 in 780.0 W/m2 CLR
15:44 32.3 °F 17.7 °F 1016.5 in NNE 11.1 mph 11.1 mph 42 % 0.0 in 775.0 W/m2 CLR
15:49 32.4 °F 17.5 °F 1016.5 in ENE 8.0 mph 8.0 mph 41 % 0.0 in 766.0 W/m2 CLR
15:54 32.4 °F 17.5 °F 1016.5 in ESE 1.9 mph 1.9 mph 41 % 0.0 in 751.0 W/m2 CLR
15:59 32.5 °F 17.6 °F 1016.5 in ENE 6.4 mph 6.4 mph 41 % 0.0 in 754.0 W/m2 CLR
16:04 32.8 °F 17.8 °F 1016.5 in NE 9.3 mph 9.3 mph 41 % 0.0 in 745.0 W/m2 CLR
16:09 33.1 °F 18.1 °F 1016.5 in ENE 5.6 mph 5.6 mph 41 % 0.0 in 738.0 W/m2 CLR
16:14 33.1 °F 17.7 °F 1016.5 in NE 3.7 mph 3.7 mph 40 % 0.0 in 733.0 W/m2 CLR
16:19 33.1 °F 17.7 °F 1016.5 in Calm     40 % 0.0 in 700.0 W/m2 CLR
16:24 32.9 °F 17.6 °F 1016.1 in ENE 5.6 mph   40 % 0.0 in 598.0 W/m2 CLR
16:29 32.9 °F 17.5 °F 1016.1 in ENE 9.3 mph 9.3 mph 40 % 0.0 in 696.0 W/m2 CLR
16:34 33.1 °F 17.7 °F 1016.1 in ENE 13.0 mph 13.0 mph 40 % 0.0 in 631.0 W/m2 CLR
16:39 32.9 °F 17.6 °F 1016.1 in Calm     40 % 0.0 in 656.0 W/m2 CLR
16:44 33.1 °F 17.7 °F 1016.1 in East 9.3 mph 9.3 mph 40 % 0.0 in 696.0 W/m2 CLR
16:49 32.9 °F 17.6 °F 1016.1 in ENE 13.0 mph 13.0 mph 40 % 0.0 in 628.0 W/m2 CLR
16:54 32.9 °F 17.5 °F 1016.1 in ENE 7.4 mph 7.4 mph 40 % 0.0 in 624.0 W/m2 CLR
16:59 32.9 °F 17.2 °F 1015.8 in East 9.3 mph 9.3 mph 39 % 0.0 in 636.0 W/m2 CLR
17:00 32.9 °F 17.2 °F 1015.8 in ENE 9.3 mph 9.3 mph 39 % 0.0 in 636.0 W/m2 CLR
17:05 32.8 °F 17.0 °F 1015.8 in East 11.1 mph 11.1 mph 39 % 0.0 in 380.0 W/m2 CLR
17:10 32.9 °F 17.1 °F 1015.8 in ENE 3.7 mph   39 % 0.0 in 459.0 W/m2 CLR
17:15 33.1 °F 16.9 °F 1015.8 in Calm     38 % 0.0 in 427.0 W/m2 CLR
17:20 33.0 °F 16.8 °F 1015.8 in NE 13.0 mph 13.0 mph 38 % 0.0 in 371.0 W/m2 CLR
17:25 32.9 °F 16.7 °F 1015.8 in ENE 1.6 mph 1.9 mph 38 % 0.0 in 443.0 W/m2 CLR
17:30 32.9 °F 16.7 °F 1015.8 in ENE 7.4 mph 7.4 mph 38 % 0.0 in 369.0 W/m2 CLR
17:35 32.8 °F 16.6 °F 1015.5 in East 1.9 mph   38 % 0.0 in 403.0 W/m2 CLR
17:40 33.0 °F 16.8 °F 1015.5 in Calm     38 % 0.0 in 626.0 W/m2 CLR
17:45 33.3 °F 16.2 °F 1015.5 in NW 7.4 mph   36 % 0.0 in 596.0 W/m2 CLR
17:50 33.6 °F 16.5 °F 1015.5 in NNE 8.0 mph 8.0 mph 36 % 0.0 in 510.0 W/m2 CLR
17:55 33.8 °F 15.7 °F 1015.5 in Calm     34 % 0.0 in 501.0 W/m2 CLR
18:00 33.8 °F 15.3 °F 1015.5 in Calm     33 % 0.0 in 476.0 W/m2 CLR
18:05 33.9 °F 15.9 °F 1015.5 in NE 5.6 mph 5.6 mph 34 % 0.0 in 448.0 W/m2 CLR
18:06 34.0 °F 15.9 °F 1015.5 in NNE 5.6 mph 5.6 mph 34 % 0.0 in 446.0 W/m2 CLR
18:11 34.1 °F 16.0 °F 1015.5 in Calm     34 % 0.0 in 424.0 W/m2 CLR
18:16 34.1 °F 15.1 °F 1015.8 in Calm     32 % 0.0 in 403.0 W/m2 CLR
18:21 34.0 °F 15.9 °F 1015.8 in Calm     34 % 0.0 in 387.0 W/m2 CLR
18:26 34.1 °F 16.0 °F 1015.8 in NNW 8.0 mph 8.0 mph 34 % 0.0 in 371.0 W/m2 CLR
18:31 34.3 °F 15.7 °F 1015.5 in NNE 11.1 mph 11.1 mph 33 % 0.0 in 357.0 W/m2 CLR
18:36 34.2 °F 15.7 °F 1015.5 in Calm     33 % 0.0 in 339.0 W/m2 CLR
18:41 34.3 °F 15.3 °F 1015.5 in Calm     32 % 0.0 in 322.0 W/m2 CLR
18:46 34.3 °F 15.2 °F 1015.8 in NNE 9.3 mph 9.3 mph 32 % 0.0 in 308.0 W/m2 CLR
18:51 34.1 °F 15.6 °F 1015.8 in NNE 11.3 mph 11.3 mph 33 % 0.0 in 292.0 W/m2 CLR
18:56 34.0 °F 15.4 °F 1015.8 in North 13.0 mph 13.0 mph 33 % 0.0 in 276.0 W/m2 CLR
19:01 33.7 °F 15.7 °F 1015.8 in Calm     34 % 0.0 in 258.0 W/m2 CLR
19:06 33.7 °F 15.7 °F 1015.8 in NNW 11.1 mph 11.1 mph 34 % 0.0 in 244.0 W/m2 CLR
19:11 33.7 °F 15.2 °F 1015.5 in North 7.4 mph 7.4 mph 33 % 0.0 in 230.0 W/m2 CLR
19:16 33.6 °F 15.1 °F 1015.5 in North 5.6 mph 5.6 mph 33 % 0.0 in 213.0 W/m2 CLR
19:21 33.6 °F 15.1 °F 1015.5 in Calm     33 % 0.0 in 197.0 W/m2 CLR
19:26 33.5 °F 15.0 °F 1015.5 in Calm     33 % 0.0 in 174.0 W/m2 CLR
19:31 33.4 °F 14.5 °F 1015.5 in Calm     32 % 0.0 in 158.0 W/m2 CLR
19:36 33.4 °F 14.5 °F 1015.5 in Calm     32 % 0.0 in 148.0 W/m2 CLR
19:41 33.6 °F 14.7 °F 1015.5 in Calm     32 % 0.0 in 134.0 W/m2 CLR
19:46 33.5 °F 14.1 °F 1015.8 in Calm     31 % 0.0 in 120.0 W/m2 CLR
19:51 33.4 °F 14.0 °F 1015.8 in Calm     31 % 0.0 in 107.0 W/m2 CLR
19:56 33.5 °F 14.1 °F 1015.8 in Calm     31 % 0.0 in 95.0 W/m2 CLR
20:01 33.6 °F 14.1 °F 1015.8 in Calm     31 % 0.0 in 83.0 W/m2 FEW
20:06 33.6 °F 14.1 °F 1015.8 in Calm     31 % 0.0 in 70.0 W/m2 FEW
20:11 33.4 °F 13.4 °F 1015.8 in Calm     30 % 0.0 in 58.0 W/m2 SCT
20:16 33.2 °F 13.8 °F 1015.8 in Calm   0.2 mph 31 % 0.0 in 49.0 W/m2 SCT
20:21 32.9 °F 13.6 °F 1015.8 in Calm     31 % 0.0 in 42.0 W/m2 BKN
20:26 32.8 °F 13.5 °F 1015.8 in Calm     31 % 0.0 in 32.0 W/m2 BKN
20:31 32.7 °F 13.8 °F 1016.1 in Calm     32 % 0.0 in 26.0 W/m2 BKN
20:36 32.4 °F 13.6 °F 1016.1 in Calm     32 % 0.0 in 21.0 W/m2 BKN
20:37 32.4 °F 13.6 °F 1016.1 in Calm     32 % 0.0 in 19.0 W/m2 BKN
20:42 31.9 °F 13.7 °F 1016.1 in Calm     33 % 0.0 in 14.0 W/m2 BKN
20:47 31.6 °F 13.8 °F 1016.1 in Calm     34 % 0.0 in 11.0 W/m2 BKN
20:52 31.3 °F 13.6 °F 1016.1 in Calm     34 % 0.0 in 7.0 W/m2 BKN
20:57 31.0 °F 13.3 °F 1016.1 in Calm     34 % 0.0 in 0.0 W/m2 OVC
21:02 30.8 °F 13.6 °F 1016.1 in NNW 4.8 mph 4.8 mph 35 % 0.0 in 0.0 W/m2 CLR
21:07 30.5 °F 13.3 °F 1016.1 in NW 5.6 mph 5.6 mph 35 % 0.0 in 0.0 W/m2 CLR
21:12 30.2 °F 13.4 °F 1016.5 in NW 5.6 mph   36 % 0.0 in 0.0 W/m2 CLR
21:17 29.9 °F 13.6 °F 1016.5 in Calm     37 % 0.0 in 0.0 W/m2 CLR
21:22 29.8 °F 13.5 °F 1016.5 in Calm     37 % 0.0 in 0.0 W/m2 CLR
21:27 29.7 °F 13.5 °F 1016.5 in Calm     37 % 0.0 in 0.0 W/m2 CLR
21:32 29.6 °F 14.2 °F 1016.5 in Calm     39 % 0.0 in 0.0 W/m2 CLR
21:38 29.4 °F 16.3 °F 1016.5 in Calm     45 % 0.0 in 0.0 W/m2 CLR
21:43 29.3 °F 16.5 °F 1016.5 in Calm     46 % 0.0 in 0.0 W/m2 CLR
21:48 29.1 °F 16.7 °F 1016.8 in Calm     47 % 0.0 in 0.0 W/m2 CLR
21:53 28.8 °F 14.6 °F 1016.8 in Calm     42 % 0.0 in 0.0 W/m2 CLR
21:58 28.7 °F 14.9 °F 1016.8 in Calm     43 % 0.0 in 0.0 W/m2 CLR
22:03 28.5 °F 15.4 °F 1016.8 in Calm     45 % 0.0 in 0.0 W/m2 CLR
22:08 28.2 °F 15.8 °F 1017.2 in Calm     47 % 0.0 in 0.0 W/m2 CLR
22:13 28.0 °F 16.6 °F 1016.8 in Calm     50 % 0.0 in 0.0 W/m2 CLR
22:18 27.8 °F 16.4 °F 1017.2 in Calm     50 % 0.0 in 0.0 W/m2 CLR
22:23 27.7 °F 16.3 °F 1017.2 in Calm     50 % 0.0 in 0.0 W/m2 CLR
22:28 27.6 °F 15.9 °F 1017.2 in Calm     49 % 0.0 in 0.0 W/m2 CLR
22:33 27.3 °F 13.9 °F 1017.2 in Calm     44 % 0.0 in 0.0 W/m2 CLR
22:36 27.1 °F 13.8 °F 1017.2 in Calm     44 % 0.0 in 0.0 W/m2 CLR
22:41 26.6 °F 13.3 °F 1017.2 in Calm     44 % 0.0 in 0.0 W/m2 CLR
22:46 26.2 °F 13.7 °F 1017.5 in Calm     46 % 0.0 in 0.0 W/m2 CLR
22:51 25.9 °F 13.4 °F 1017.5 in Calm     46 % 0.0 in 0.0 W/m2 CLR
22:56 25.8 °F 13.3 °F 1017.5 in Calm     46 % 0.0 in 0.0 W/m2 CLR
23:01 25.6 °F 13.7 °F 1017.5 in Calm     48 % 0.0 in 0.0 W/m2 CLR
23:06 25.4 °F 13.3 °F 1017.5 in Calm     47 % 0.0 in 0.0 W/m2 CLR
23:11 25.3 °F 13.2 °F 1017.5 in Calm     47 % 0.0 in 0.0 W/m2 CLR
23:16 25.3 °F 13.2 °F 1017.5 in Calm     47 % 0.0 in 0.0 W/m2 CLR
23:21 25.3 °F 13.5 °F 1017.5 in Calm     48 % 0.0 in 0.0 W/m2 CLR
23:26 25.3 °F 13.6 °F 1017.5 in WSW 1.9 mph 1.9 mph 48 % 0.0 in 0.0 W/m2 CLR
23:31 25.4 °F 13.6 °F 1017.8 in Calm     48 % 0.0 in 0.0 W/m2 CLR
23:36 25.4 °F 14.2 °F 1017.8 in WNW 6.4 mph 6.4 mph 50 % 0.0 in 0.0 W/m2 CLR
23:41 25.7 °F 13.8 °F 1017.8 in WNW 5.6 mph 5.6 mph 48 % 0.0 in 0.0 W/m2 CLR
23:46 26.4 °F 14.6 °F 1017.8 in NNW 20.4 mph 20.4 mph 48 % 0.0 in 0.0 W/m2 CLR
23:51 27.5 °F 14.5 °F 1017.8 in NNW 20.4 mph 20.4 mph 45 % 0.0 in 0.0 W/m2 CLR
23:56 27.8 °F 14.4 °F 1017.8 in North 12.9 mph 12.9 mph 44 % 0.0 in 0.0 W/m2 CLR
Lo Temps de Massalio
Compliments of Weather Underground - 1.25 mb